YWLM METAR and TAF | Updated Today

YWLM METAR

Newcastle Airport

Observation time: 29 min. ago

YWLM 052030Z 04002KT 9999 FEW028 21/19 Q1017

Need help? Read our tutorial on how to read METARs or read the parsed version below.

Newcastle Airport (YWLM) METAR

  • Weather conditions on Sun, 05 Feb 2023 20:30:00 +0000 (29 min. ago):
  • Present conditions: Dry
  • Clouds: A few at 853 meters
  • Visibility: Greater than 10 km
  • Wind: 40 degrees at 2 knots
  • Temperature: 21 celsius
  • Dew point: 19 celsius
  • Pressure: 1017 millibars
  • Remarks: None


Useful to know...

YWLM TAF

Newcastle Airport

TAF YWLM 051716Z 0518/0618 09005KT 9999 BKN030 FM060100 09014KT 9999 SCT030 FM061000 06008KT 9999 SCT025
Observation time: 3:43 hr. ago
Need help? Read our tutorial on how to read TAFs or read the parsed version below.

Parsed version of TAF for Newcastle Airport (YWLM)

  • From 05 February at 18:00 UTC, to day 06 of the month at 18:00 UTC
  • Clouds: Broken sky at 914 meters
  • Visibility: Greater than 10 km
  • Wind: 90 degrees at 5
  • From day 6 of the month at 01:00 UTC
  • Clouds: Scattered at 914 meters
  • Visibility: Greater than 10 km
  • Wind: 90 degrees at 14
  • From day 6 of the month at 10:00 UTC
  • Clouds: Scattered at 762 meters
  • Visibility: Greater than 10 km
  • Wind: 60 degrees at 8

Airports near YWLM